KBTV/BTV METAR and TAF weather

Enter ICAO airport designator
Station Type Date Time Source
KBTV METAR 2021/09/27 05:54 UTC NOAA

KBTV 270554Z AUTO 19005KT 10SM BKN075 13/08 A2986 RMK AO2 SLP110 T01330083 10167 20133 57002


Station Type Date Time Source
KBTV Decoded METAR 2021/09/27 05:54 UTC NOAA

BURLINGTON INTERNATIONAL, VT, United States (KBTV) 44-28N 73-09W 105M
Sep 27, 2021 - 01:54 AM EDT / 2021.09.27 0554 UTC
Wind: from the S (190 degrees) at 6 MPH (5 KT):0
Visibility: 10 mile(s):0
Sky conditions: mostly cloudy
Temperature: 55.9 F (13.3 C)
Dew Point: 46.9 F (8.3 C)
Relative Humidity: 71%
Pressure (altimeter): 29.86 in. Hg (1011 hPa)
Pressure tendency: 0.01 inches (0.2 hPa) lower than three hours ago
ob: KBTV 270554Z AUTO 19005KT 10SM BKN075 13/08 A2986 RMK AO2 SLP110 T01330083 10167 20133 57002
cycle: 6

Station Type Date Time Source
KBTV TAF 2021/09/27 06:33 UTC NOAA

TAF KBTV 270531Z 2706/2806 19006KT P6SM BKN070
FM271200 18010G18KT P6SM VCSH BKN060
FM271600 19010KT 6SM -SHRA BR OVC035
FM272100 22006KT P6SM VCSH OVC025

Example: see airport list